createdAt,value
2019-05-15T01:09:10.557Z,14.07
2019-05-15T01:11:41.334Z,14.40
2019-05-15T01:14:12.903Z,13.88
2019-05-15T01:16:44.461Z,14.13
2019-05-15T01:19:15.358Z,14.13
2019-05-15T01:21:48.085Z,14.53
2019-05-15T01:26:50.074Z,11.85
2019-05-15T01:29:21.303Z,12.33
2019-05-15T01:31:52.494Z,13.50
2019-05-15T01:34:23.782Z,14.00
2019-05-15T01:36:54.914Z,14.40
2019-05-15T01:39:28.920Z,14.00
2019-05-15T01:41:59.425Z,14.38
2019-05-15T01:44:31.504Z,14.68
2019-05-15T01:47:02.819Z,13.80
2019-05-15T01:49:33.818Z,15.10
2019-05-15T01:52:04.893Z,13.55
2019-05-15T01:54:38.260Z,15.18
2019-05-15T01:57:09.315Z,14.15
2019-05-15T01:59:53.924Z,14.30
2019-05-15T02:02:13.324Z,13.83
2019-05-15T02:04:44.433Z,14.35
2019-05-15T02:07:18.553Z,14.33
2019-05-15T02:09:49.190Z,14.73
2019-05-15T02:12:20.727Z,14.78
2019-05-15T02:14:52.120Z,15.13
2019-05-15T02:17:23.359Z,15.17
2019-05-15T02:19:54.425Z,14.45
2019-05-15T02:22:25.567Z,12.80
2019-05-15T02:24:58.974Z,14.58
2019-05-15T02:27:29.598Z,13.60
2019-05-15T02:30:16.193Z,13.65
2019-05-15T02:35:04.151Z,12.73
2019-05-15T02:37:35.398Z,12.00
2019-05-15T02:40:09.858Z,13.00
2019-05-15T02:42:40.680Z,12.68
2019-05-15T02:45:14.605Z,11.18
2019-05-15T02:47:48.648Z,11.40
2019-05-15T02:50:20.428Z,12.18
2019-05-15T02:52:50.663Z,11.08
2019-05-15T02:55:21.830Z,12.00
2019-05-15T02:57:53.263Z,12.15
2019-05-15T03:00:37.709Z,11.57
2019-05-15T03:02:59.920Z,12.00
2019-05-15T03:05:29.714Z,12.00
2019-05-15T03:08:02.484Z,12.33
2019-05-15T03:10:39.933Z,12.37
2019-05-15T03:13:09.967Z,11.75
2019-05-15T03:15:41.281Z,11.90
2019-05-15T03:18:12.452Z,12.10
2019-05-15T03:20:43.706Z,11.38
2019-05-15T03:23:14.689Z,12.17
2019-05-15T03:25:48.898Z,10.98
2019-05-15T03:28:19.198Z,10.35
2019-05-15T03:31:14.702Z,10.40
2019-05-15T03:33:27.661Z,10.63
2019-05-15T03:36:01.744Z,10.93
2019-05-15T03:38:29.793Z,10.55
2019-05-15T03:41:01.059Z,10.80
2019-05-15T03:43:34.455Z,11.15
2019-05-15T03:46:05.431Z,10.32
2019-05-15T03:48:39.772Z,9.93
2019-05-15T03:51:09.180Z,10.75
2019-05-15T03:53:40.648Z,10.85
2019-05-15T03:56:11.831Z,11.57
2019-05-15T03:58:42.815Z,10.78
2019-05-15T04:01:28.322Z,9.90
2019-05-15T04:03:49.350Z,10.15
2019-05-15T04:06:19.594Z,10.68
2019-05-15T04:08:51.004Z,9.88
2019-05-15T04:11:22.552Z,10.40
2019-05-15T04:13:53.496Z,10.75
2019-05-15T04:16:24.530Z,10.80
2019-05-15T04:18:59.196Z,10.43
2019-05-15T04:21:30.448Z,12.78
2019-05-15T04:24:01.140Z,9.33
2019-05-15T04:26:32.882Z,9.20
2019-05-15T04:29:04.029Z,8.78
2019-05-15T04:31:50.398Z,8.83
2019-05-15T04:34:09.258Z,7.70
2019-05-15T04:36:44.209Z,8.25
2019-05-15T04:39:13.226Z,8.20
2019-05-15T04:41:44.320Z,8.30
2019-05-15T04:44:15.138Z,8.98
2019-05-15T04:46:49.535Z,8.78
2019-05-15T04:49:19.311Z,7.80
2019-05-15T04:51:50.413Z,7.17
2019-05-15T04:54:21.832Z,7.50
2019-05-15T04:56:52.997Z,7.97
2019-05-15T04:59:23.874Z,7.53
2019-05-15T05:02:12.901Z,7.83
2019-05-15T05:04:29.495Z,7.60
2019-05-15T05:06:59.942Z,7.20
2019-05-15T05:09:31.662Z,7.47
2019-05-15T05:12:02.770Z,7.78
2019-05-15T05:14:34.054Z,7.28
2019-05-15T05:17:08.783Z,7.80
2019-05-15T05:19:40.150Z,8.98
2019-05-15T05:22:10.673Z,7.75
2019-05-15T05:24:41.497Z,6.70
2019-05-15T05:27:12.546Z,6.87
2019-05-15T05:29:43.552Z,6.67
2019-05-15T05:32:28.794Z,6.83
2019-05-15T05:34:48.335Z,6.67
2019-05-15T05:37:19.536Z,6.62
2019-05-15T05:39:50.666Z,7.00
2019-05-15T05:42:22.279Z,7.12
2019-05-15T05:44:53.937Z,6.53
2019-05-15T05:47:25.680Z,7.40
2019-05-15T05:49:58.185Z,7.15
2019-05-15T05:52:29.463Z,6.65
2019-05-15T05:55:00.677Z,7.10
2019-05-15T05:57:32.253Z,7.10
2019-05-15T06:00:03.662Z,7.00
2019-05-15T06:02:46.555Z,7.10
2019-05-15T06:05:07.950Z,7.30
2019-05-15T06:10:10.809Z,5.78
2019-05-15T06:12:41.892Z,6.20
2019-05-15T06:15:13.218Z,6.75
2019-05-15T06:17:48.120Z,6.03
2019-05-15T06:20:22.116Z,6.05
2019-05-15T06:22:53.284Z,6.08
2019-05-15T06:25:24.798Z,6.07
2019-05-15T06:27:58.206Z,6.00
2019-05-15T06:30:30.657Z,5.90
2019-05-15T06:33:09.133Z,5.85
2019-05-15T06:35:34.298Z,6.12
2019-05-15T06:38:05.593Z,6.25
2019-05-15T06:40:39.338Z,7.12
2019-05-15T06:43:09.801Z,6.30
2019-05-15T06:45:40.644Z,7.00
2019-05-15T06:48:11.506Z,6.33
2019-05-15T06:50:43.365Z,6.40
2019-05-15T06:53:15.325Z,6.80
2019-05-15T06:55:48.586Z,6.70
2019-05-15T06:58:19.937Z,6.62
2019-05-15T07:03:25.877Z,6.33
2019-05-15T07:05:54.590Z,6.00
2019-05-15T07:08:25.607Z,6.62
2019-05-15T07:10:57.842Z,5.75
2019-05-15T07:13:30.397Z,6.20
2019-05-15T07:16:02.668Z,5.00
2019-05-15T07:18:33.776Z,5.60
2019-05-15T07:21:05.251Z,5.08
2019-05-15T07:23:38.503Z,5.45
2019-05-15T07:26:09.480Z,5.75
2019-05-15T07:31:11.671Z,5.25
2019-05-15T07:33:43.998Z,5.78
2019-05-15T07:36:15.342Z,6.00
2019-05-15T07:38:48.504Z,6.23
2019-05-15T07:41:19.889Z,5.12
2019-05-15T07:43:50.973Z,6.27
2019-05-15T07:46:28.646Z,5.60
2019-05-15T07:48:59.121Z,5.20
2019-05-15T07:51:33.487Z,5.28
2019-05-15T07:54:05.083Z,5.37
2019-05-15T07:56:37.967Z,5.78
2019-05-15T07:59:09.100Z,5.87
2019-05-15T08:01:40.012Z,6.28
2019-05-15T08:04:25.075Z,6.25
2019-05-15T08:06:43.396Z,6.67
2019-05-15T08:09:17.845Z,5.95
2019-05-15T08:11:50.621Z,5.97
2019-05-15T08:14:23.166Z,6.60
2019-05-15T08:16:54.620Z,6.25
2019-05-15T08:19:28.772Z,6.40
2019-05-15T08:22:00.027Z,6.17
2019-05-15T08:24:31.018Z,5.80
2019-05-15T08:27:02.272Z,5.90
2019-05-15T08:29:33.383Z,5.43
2019-05-15T08:32:04.666Z,5.28
2019-05-15T08:34:36.040Z,5.33
2019-05-15T08:37:07.968Z,5.30
2019-05-15T08:42:09.432Z,4.80
2019-05-15T08:44:40.889Z,5.42
2019-05-15T08:47:12.138Z,5.43
2019-05-15T08:49:43.415Z,4.40
2019-05-15T08:52:14.709Z,3.50
2019-05-15T08:54:48.435Z,4.65
2019-05-15T08:57:20.392Z,3.85
2019-05-15T08:59:50.557Z,4.10
2019-05-15T09:02:21.631Z,3.50
2019-05-15T09:04:52.998Z,3.77
2019-05-15T09:07:24.015Z,3.40
2019-05-15T09:09:55.367Z,3.20
2019-05-15T09:12:26.331Z,3.37
2019-05-15T09:14:58.225Z,3.33
2019-05-15T09:17:29.465Z,3.62
2019-05-15T09:20:00.772Z,3.77
2019-05-15T09:22:31.991Z,4.07
2019-05-15T09:25:03.074Z,3.40
2019-05-15T09:27:34.703Z,3.10
2019-05-15T09:30:08.915Z,3.37
2019-05-15T09:32:41.719Z,3.40
2019-05-15T09:35:12.845Z,3.10
2019-05-15T09:37:44.297Z,3.17
2019-05-15T09:40:18.417Z,3.65
2019-05-15T09:42:48.674Z,3.45
2019-05-15T09:45:20.594Z,3.58
2019-05-15T09:47:51.751Z,3.00
2019-05-15T09:50:23.033Z,3.10
2019-05-15T09:52:54.182Z,3.55
2019-05-15T09:55:28.501Z,3.50
2019-05-15T09:57:59.587Z,3.67
2019-05-15T10:00:31.180Z,3.62
2019-05-15T10:03:02.446Z,3.72
2019-05-15T10:05:33.877Z,4.90
2019-05-15T10:08:05.261Z,3.58
2019-05-15T10:10:37.965Z,3.50
2019-05-15T10:13:09.163Z,3.52
2019-05-15T10:15:39.948Z,4.08
2019-05-15T10:18:10.859Z,4.28
2019-05-15T10:20:42.262Z,4.00
2019-05-15T10:23:13.715Z,4.40
2019-05-15T10:25:45.370Z,3.83
2019-05-15T10:28:18.689Z,3.52
2019-05-15T10:33:20.601Z,4.20
2019-05-15T10:35:51.779Z,4.55
2019-05-15T10:38:22.955Z,5.83
2019-05-15T10:41:03.988Z,5.30
2019-05-15T10:45:58.570Z,7.12
2019-05-15T10:48:29.302Z,5.10
2019-05-15T10:53:32.455Z,4.83
2019-05-15T10:56:03.705Z,5.05
2019-05-15T10:58:34.784Z,5.07
2019-05-15T11:01:05.982Z,4.72
2019-05-15T11:03:39.711Z,5.50
2019-05-15T11:06:09.630Z,5.05
2019-05-15T11:08:41.050Z,5.30
2019-05-15T11:11:12.149Z,5.40
2019-05-15T11:13:43.502Z,7.00
2019-05-15T11:16:14.716Z,6.37
2019-05-15T11:18:48.025Z,5.85
2019-05-15T11:21:19.139Z,5.65
2019-05-15T11:26:19.470Z,5.60
2019-05-15T11:28:51.088Z,5.47
2019-05-15T11:31:24.855Z,5.47
2019-05-15T11:33:54.679Z,6.00
2019-05-15T11:36:25.785Z,5.30
2019-05-15T11:38:57.201Z,5.53
2019-05-15T11:41:29.535Z,5.37
2019-05-15T11:44:01.112Z,5.40
2019-05-15T11:46:32.291Z,5.87
2019-05-15T11:49:03.709Z,6.05
2019-05-15T11:51:34.772Z,7.12
2019-05-15T11:54:08.240Z,10.88
2019-05-15T11:56:39.373Z,13.60
2019-05-15T11:59:10.487Z,13.32
2019-05-15T12:01:41.630Z,13.75
2019-05-15T12:04:26.657Z,12.47
2019-05-15T12:06:58.304Z,11.95
2019-05-15T12:09:18.767Z,13.15
2019-05-15T12:11:50.062Z,13.32
2019-05-15T12:14:20.943Z,14.85
2019-05-15T12:17:05.006Z,11.85
2019-05-15T12:19:24.957Z,12.00
2019-05-15T12:21:59.604Z,12.35
2019-05-15T12:24:35.274Z,11.83
2019-05-15T12:27:13.856Z,11.63
2019-05-15T12:29:34.569Z,10.75
2019-05-15T12:32:21.993Z,10.90
2019-05-15T12:34:38.805Z,10.45
2019-05-15T12:37:10.987Z,11.05
2019-05-15T12:39:42.322Z,11.50
2019-05-15T12:59:59.352Z,7.83
2019-05-15T13:02:30.602Z,8.10
2019-05-15T13:05:01.584Z,6.93
2019-05-15T13:07:32.788Z,8.15
2019-05-15T13:10:04.139Z,7.78
2019-05-15T13:12:35.156Z,8.30
2019-05-15T13:15:08.365Z,8.58
2019-05-15T13:17:39.637Z,8.18
2019-05-15T13:20:10.967Z,7.80
2019-05-15T13:22:41.938Z,7.78
2019-05-15T13:25:12.847Z,8.08
2019-05-15T13:27:43.913Z,7.58
2019-05-15T13:30:15.160Z,7.60
2019-05-15T13:32:46.263Z,7.10
2019-05-15T13:35:18.401Z,7.12
2019-05-15T13:37:49.748Z,7.15
2019-05-15T13:40:34.028Z,6.17
2019-05-15T13:45:25.602Z,6.10
2019-05-15T13:47:57.806Z,6.35
2019-05-15T13:53:00.568Z,6.25
2019-05-15T13:55:36.531Z,6.70
2019-05-15T13:58:17.060Z,6.08
2019-05-15T14:00:49.207Z,6.28
2019-05-15T14:05:50.914Z,6.37
2019-05-15T14:08:23.648Z,6.57
2019-05-15T14:10:55.692Z,6.17
2019-05-15T14:13:29.194Z,6.53
2019-05-15T14:16:00.369Z,6.25
2019-05-15T14:18:32.229Z,6.03
2019-05-15T14:21:03.621Z,6.20
2019-05-15T14:23:35.417Z,6.17
2019-05-15T14:26:17.730Z,6.15
2019-05-15T14:28:42.056Z,6.40
2019-05-15T14:31:13.794Z,6.00
2019-05-15T14:33:45.468Z,6.25
2019-05-15T14:36:18.429Z,6.35
2019-05-15T14:38:49.551Z,6.50
2019-05-15T14:41:20.905Z,6.58
2019-05-15T14:44:13.013Z,6.30
2019-05-15T14:46:31.122Z,7.22
2019-05-15T14:49:02.432Z,7.78
2019-05-15T14:51:33.705Z,7.10
2019-05-15T14:54:05.063Z,7.47
2019-05-15T14:56:38.237Z,7.70
2019-05-15T14:59:13.959Z,7.90
2019-05-15T15:01:48.741Z,8.15
2019-05-15T15:04:23.266Z,8.18
2019-05-15T15:06:54.818Z,8.38
2019-05-15T15:09:28.721Z,8.95
2019-05-15T15:12:00.860Z,9.78
2019-05-15T15:14:32.105Z,7.90
2019-05-15T15:17:03.364Z,8.40
2019-05-15T15:19:34.793Z,8.35
2019-05-15T15:22:08.674Z,8.97
2019-05-15T15:24:40.155Z,8.50
2019-05-15T15:27:13.551Z,8.20
2019-05-15T15:29:48.176Z,9.18
2019-05-15T15:32:18.694Z,8.63
2019-05-15T15:34:51.604Z,8.70
2019-05-15T15:37:24.381Z,8.98
2019-05-15T15:39:55.895Z,8.98
2019-05-15T15:42:28.484Z,8.45
2019-05-15T15:45:00.279Z,8.88
2019-05-15T15:47:31.307Z,9.58
2019-05-15T15:50:02.515Z,9.43
2019-05-15T15:52:34.062Z,9.63
2019-05-15T15:55:05.543Z,9.97
2019-05-15T15:57:39.713Z,9.43
2019-05-15T16:00:12.283Z,9.95
2019-05-15T16:02:44.986Z,10.45
2019-05-15T16:05:18.870Z,9.68
2019-05-15T16:07:48.982Z,10.13
2019-05-15T16:10:28.159Z,9.88
2019-05-15T16:12:58.411Z,9.83
2019-05-15T16:15:30.741Z,9.18
2019-05-15T16:18:02.110Z,9.60
2019-05-15T16:20:33.219Z,10.15
2019-05-15T16:23:04.371Z,10.18
2019-05-15T16:25:35.679Z,10.38
2019-05-15T16:28:08.688Z,10.20
2019-05-15T16:33:10.264Z,10.55
2019-05-15T16:35:41.377Z,10.25
2019-05-15T16:38:12.630Z,10.20
2019-05-15T16:40:44.022Z,11.15
2019-05-15T16:43:17.715Z,10.32
2019-05-15T16:45:51.944Z,9.83
2019-05-15T16:48:20.961Z,10.00
2019-05-15T16:50:54.532Z,10.13
2019-05-15T16:53:25.815Z,9.78
2019-05-15T16:55:58.650Z,10.35
2019-05-15T16:58:31.479Z,9.95
2019-05-15T17:01:02.789Z,9.95
2019-05-15T17:03:38.019Z,9.53
2019-05-15T17:06:09.452Z,9.53
2019-05-15T17:08:40.732Z,9.13
2019-05-15T17:11:11.837Z,9.50
2019-05-15T17:13:43.063Z,9.70
2019-05-15T17:16:14.628Z,9.78
